createdAt,value
2018-02-05T20:26:07.163Z,6.95
2018-02-05T20:28:35.825Z,9.55
2018-02-05T20:31:05.268Z,10.02
2018-02-05T20:33:33.956Z,10.45
2018-02-05T20:36:02.644Z,11.18
2018-02-05T20:38:31.304Z,10.85
2018-02-05T20:40:59.974Z,9.95
2018-02-05T20:43:29.223Z,10.15
2018-02-05T20:45:57.900Z,10.10
2018-02-05T20:48:27.087Z,10.43
2018-02-05T20:50:55.755Z,10.75
2018-02-05T20:53:25.186Z,10.90
2018-02-05T20:55:53.867Z,9.20
2018-02-05T20:58:22.525Z,9.70
2018-02-05T21:00:51.980Z,10.27
2018-02-05T21:03:20.650Z,10.73
2018-02-05T21:05:49.327Z,10.07
2018-02-05T21:08:17.843Z,10.60
2018-02-05T21:10:46.531Z,10.40
2018-02-05T21:13:15.204Z,9.95
2018-02-05T21:15:43.894Z,10.68
2018-02-05T21:18:12.592Z,11.23
2018-02-05T21:20:41.283Z,12.20
2018-02-05T21:23:09.968Z,9.63
2018-02-05T21:25:38.659Z,10.60
2018-02-05T21:28:07.002Z,12.10
2018-02-05T21:30:35.697Z,11.18
2018-02-05T21:33:04.375Z,12.32
2018-02-05T21:35:33.071Z,11.05
2018-02-05T21:38:01.755Z,11.52
2018-02-05T21:40:30.438Z,10.85
2018-02-05T21:42:59.132Z,11.32
2018-02-05T21:45:27.825Z,12.88
2018-02-05T21:47:56.509Z,13.73
2018-02-05T21:50:25.211Z,12.60
2018-02-05T21:52:53.904Z,12.60
2018-02-05T21:55:22.585Z,11.27
2018-02-05T21:57:51.325Z,14.68
2018-02-05T22:00:20.076Z,13.62
2018-02-05T22:02:49.375Z,12.18
2018-02-05T22:05:18.057Z,11.95
2018-02-05T22:07:46.780Z,12.05
2018-02-05T23:29:14.474Z,13.60
2018-02-05T23:31:43.171Z,13.40
2018-02-05T23:34:11.835Z,14.38
2018-02-05T23:36:40.529Z,14.57
2018-02-05T23:39:09.221Z,13.40
2018-02-05T23:41:37.907Z,14.57
2018-02-05T23:44:06.579Z,13.82
2018-02-05T23:46:35.268Z,13.85
2018-02-05T23:49:03.950Z,14.50
2018-02-05T23:51:32.624Z,15.27
2018-02-05T23:54:01.295Z,13.98
2018-02-05T23:56:29.989Z,15.00
2018-02-05T23:59:02.900Z,15.65
